Time;durP1;ratioP1;P1;durP2;ratioP2;P2;SDS_P1;SDS_P2;PMS_P1;PMS_P2;Temp;Humidity;BMP_temperature;BMP_pressure;BME280_temperature;BME280_humidity;BME280_pressure;Samples;Min_cycle;Max_cycle;Signal;HPM_P1;HPM_P2
2023/08/29 00:00:05;;;;;;;0.50;0.40;;;;;;;24.46;84.91;94718.25;5071176;28;20510;-68
2023/08/29 00:02:40;;;;;;;0.50;0.40;;;;;;;24.55;83.62;94729.59;5072014;28;20506;-69
2023/08/29 00:05:09;;;;;;;0.50;0.30;;;;;;;24.61;83.92;94721.91;5071669;28;20432;-68
2023/08/29 00:07:38;;;;;;;0.80;0.30;;;;;;;24.66;82.38;94734.34;5071542;28;20485;-68
2023/08/29 00:10:08;;;;;;;6.47;0.40;;;;;;;24.54;83.06;94725.31;5071960;28;20490;-68
2023/08/29 00:12:36;;;;;;;2.50;0.40;;;;;;;24.59;82.80;94732.34;5071848;28;20437;-68
2023/08/29 00:15:05;;;;;;;0.67;0.53;;;;;;;24.57;83.74;94735.41;5071285;28;20434;-68
2023/08/29 00:17:35;;;;;;;1.70;0.40;;;;;;;24.75;82.10;94741.00;5069969;28;20441;-68
2023/08/29 00:20:04;;;;;;;0.60;0.50;;;;;;;24.85;81.32;94740.34;5065273;28;20520;-68
2023/08/29 00:22:32;;;;;;;0.50;0.40;;;;;;;24.64;82.86;94738.19;5063142;28;20552;-69
2023/08/29 00:25:01;;;;;;;0.60;0.60;;;;;;;24.43;85.10;94742.63;5071496;28;20436;-68
2023/08/29 00:27:29;;;;;;;0.50;0.50;;;;;;;24.53;83.80;94729.19;5071516;28;20476;-68
2023/08/29 00:29:57;;;;;;;0.40;0.30;;;;;;;24.48;84.46;94731.44;5044788;28;20503;-68
2023/08/29 00:32:26;;;;;;;1.43;0.60;;;;;;;24.22;86.57;94736.94;5071121;28;20499;-65
2023/08/29 00:34:55;;;;;;;0.47;0.37;;;;;;;24.29;85.95;94726.97;5071192;28;20444;-68
2023/08/29 00:37:24;;;;;;;0.53;0.30;;;;;;;24.36;85.20;94731.72;5071215;28;20452;-68
2023/08/29 00:39:52;;;;;;;1.00;1.00;;;;;;;24.32;85.29;94733.56;5070275;28;20472;-69
2023/08/29 00:42:20;;;;;;;0.50;0.30;;;;;;;24.31;85.26;94723.91;5071118;28;20441;-68
2023/08/29 00:44:49;;;;;;;0.50;0.30;;;;;;;24.27;85.15;94729.28;5070716;28;20429;-68
2023/08/29 00:47:17;;;;;;;0.60;0.50;;;;;;;24.23;85.70;94724.97;5070997;28;20522;-68
2023/08/29 00:49:45;;;;;;;0.40;0.30;;;;;;;23.97;85.91;94725.78;5071337;28;20533;-68
2023/08/29 00:52:15;;;;;;;0.50;0.40;;;;;;;23.61;89.23;94735.38;5071293;28;20842;-68
2023/08/29 00:54:43;;;;;;;0.67;0.50;;;;;;;23.86;88.04;94731.06;5071438;28;20464;-69
2023/08/29 00:57:12;;;;;;;0.50;0.40;;;;;;;24.02;87.33;94728.97;5070921;28;20847;-68
2023/08/29 00:59:41;;;;;;;0.50;0.30;;;;;;;23.98;86.40;94719.25;5071370;28;20506;-68
2023/08/29 01:02:10;;;;;;;0.40;0.30;;;;;;;24.04;85.88;94723.16;5070701;28;20471;-69
2023/08/29 01:04:38;;;;;;;0.50;0.40;;;;;;;24.07;85.61;94724.34;5070357;28;20518;-69
2023/08/29 01:07:07;;;;;;;0.80;0.50;;;;;;;24.05;86.57;94721.25;5070518;28;20543;-68
2023/08/29 01:09:36;;;;;;;0.50;0.37;;;;;;;24.05;87.32;94726.66;5071460;28;20457;-68
2023/08/29 01:12:12;;;;;;;0.50;0.40;;;;;;;23.83;90.55;94718.25;5071202;28;20433;-69
2023/08/29 01:14:48;;;;;;;0.50;0.50;;;;;;;23.92;89.65;94715.28;5070921;28;20441;-68
2023/08/29 01:17:23;;;;;;;0.60;0.50;;;;;;;23.72;91.38;94713.88;5071273;28;20440;-69
2023/08/29 01:19:53;;;;;;;0.60;0.60;;;;;;;23.94;89.42;94716.47;5071193;28;20429;-69
2023/08/29 01:22:31;;;;;;;1.03;0.80;;;;;;;24.19;88.14;94713.31;5071142;28;20996;-69
2023/08/29 01:25:11;;;;;;;0.67;0.67;;;;;;;24.10;87.66;94689.25;5071306;28;20448;-69
2023/08/29 01:27:41;;;;;;;0.50;0.50;;;;;;;24.11;88.17;94695.44;5057655;28;20481;-69
2023/08/29 01:30:11;;;;;;;1.27;1.17;;;;;;;24.17;88.36;94700.16;5071247;28;20437;-69
2023/08/29 01:32:40;;;;;;;2.00;0.50;;;;;;;23.88;90.46;94700.94;5070724;28;20450;-69
2023/08/29 01:35:11;;;;;;;2.00;0.80;;;;;;;24.06;89.18;94688.38;5073622;28;20827;-70
2023/08/29 01:37:39;;;;;;;0.60;0.40;;;;;;;24.22;87.84;94689.00;5074238;28;20949;-70
2023/08/29 01:40:09;;;;;;;3.50;0.50;;;;;;;23.78;89.35;94653.63;5074691;28;20434;-70
2023/08/29 01:42:37;;;;;;;0.60;0.50;;;;;;;23.86;91.09;94701.28;5074337;28;20433;-70
2023/08/29 01:45:08;;;;;;;0.47;0.37;;;;;;;23.58;94.75;94690.09;5074642;28;20898;-70
2023/08/29 01:47:37;;;;;;;0.67;0.40;;;;;;;23.60;93.53;94695.16;5074342;28;20614;-69
2023/08/29 01:50:07;;;;;;;0.60;0.50;;;;;;;23.24;94.92;94653.28;5073624;28;20473;-67
2023/08/29 01:52:36;;;;;;;0.63;0.40;;;;;;;23.47;93.69;94694.59;5077288;28;20482;-69
2023/08/29 01:55:04;;;;;;;0.57;0.57;;;;;;;23.25;95.98;94704.28;5074891;28;20430;-70
2023/08/29 01:57:35;;;;;;;1.67;0.40;;;;;;;21.92;95.01;94497.66;5074601;28;20441;-70
2023/08/29 02:00:05;;;;;;;0.53;0.40;;;;;;;23.28;94.09;94689.25;5073960;28;20429;-69
2023/08/29 02:02:35;;;;;;;0.50;0.30;;;;;;;23.20;93.73;94677.56;5065161;28;20443;-69
2023/08/29 02:05:04;;;;;;;0.40;0.30;;;;;;;23.33;94.11;94697.84;5068942;28;20437;-69
2023/08/29 02:07:32;;;;;;;0.70;0.43;;;;;;;23.27;94.89;94696.63;5073713;28;20489;-69
2023/08/29 02:10:00;;;;;;;0.50;0.50;;;;;;;23.24;94.67;94699.25;5073795;28;20867;-69
2023/08/29 02:12:28;;;;;;;0.70;0.70;;;;;;;23.15;94.15;94696.00;5074326;28;20432;-69
2023/08/29 02:14:57;;;;;;;0.77;0.60;;;;;;;23.00;97.54;94702.34;5073984;28;20441;-69
2023/08/29 02:17:27;;;;;;;0.50;0.40;;;;;;;23.00;97.40;94691.53;5073372;28;20976;-68
2023/08/29 02:19:56;;;;;;;0.50;0.50;;;;;;;23.08;94.33;94701.31;5073517;28;20476;-70
2023/08/29 02:22:25;;;;;;;0.50;0.30;;;;;;;22.88;94.90;94691.72;5073925;28;20437;-70
2023/08/29 02:24:53;;;;;;;12.30;0.90;;;;;;;22.96;95.00;94705.00;5073565;28;20434;-71
2023/08/29 02:27:21;;;;;;;0.53;0.50;;;;;;;23.25;92.41;94700.84;5073053;28;20480;-69
2023/08/29 02:29:50;;;;;;;0.73;0.43;;;;;;;23.10;94.03;94694.41;5073851;28;20560;-68
2023/08/29 02:32:18;;;;;;;0.50;0.40;;;;;;;23.23;93.11;94693.06;5073108;28;20438;-68
2023/08/29 02:34:47;;;;;;;0.60;0.50;;;;;;;23.13;93.35;94690.19;5073692;28;20438;-69
2023/08/29 02:37:17;;;;;;;0.90;0.40;;;;;;;23.21;92.07;94689.16;5073093;28;20891;-68
2023/08/29 02:39:45;;;;;;;0.60;0.40;;;;;;;23.22;92.09;94694.22;5073401;28;20496;-69
2023/08/29 02:42:13;;;;;;;0.50;0.30;;;;;;;23.26;92.10;94694.25;5072473;28;20490;-70
2023/08/29 02:44:42;;;;;;;0.40;0.30;;;;;;;23.19;91.74;94694.94;5072908;28;20444;-69
2023/08/29 02:47:10;;;;;;;0.40;0.30;;;;;;;23.17;91.80;94699.16;5071992;28;20469;-69
2023/08/29 02:49:38;;;;;;;1.87;0.40;;;;;;;23.19;90.27;94696.88;5072915;28;21058;-69
2023/08/29 02:52:07;;;;;;;0.50;0.50;;;;;;;22.93;93.41;94694.91;5073078;28;20472;-69
2023/08/29 02:54:37;;;;;;;0.50;0.30;;;;;;;23.00;92.89;94694.25;5073160;28;20446;-69
2023/08/29 02:57:05;;;;;;;0.50;0.40;;;;;;;22.84;92.45;94675.47;5073009;28;20429;-69
2023/08/29 02:59:34;;;;;;;0.60;0.50;;;;;;;23.04;91.71;94695.09;5073000;28;20866;-69
2023/08/29 03:02:03;;;;;;;0.50;0.30;;;;;;;22.99;91.38;94698.09;5072727;28;20853;-69
2023/08/29 03:04:31;;;;;;;1.53;0.40;;;;;;;22.95;92.21;94700.72;5072979;28;20437;-69
2023/08/29 03:07:02;;;;;;;0.40;0.30;;;;;;;22.94;92.38;94701.91;5072351;28;21042;-69
2023/08/29 03:09:31;;;;;;;0.40;0.27;;;;;;;22.94;92.07;94701.09;5072577;28;20534;-69
2023/08/29 03:12:00;;;;;;;0.50;0.40;;;;;;;22.62;90.12;94627.63;5059132;28;20533;-69
2023/08/29 03:14:29;;;;;;;0.40;0.30;;;;;;;23.05;91.20;94693.94;5065817;28;20471;-69
2023/08/29 03:16:58;;;;;;;0.50;0.40;;;;;;;23.13;90.66;94695.59;5072291;28;20495;-69
2023/08/29 03:19:26;;;;;;;0.50;0.30;;;;;;;23.42;88.75;94694.13;5072816;28;20444;-68
2023/08/29 03:21:55;;;;;;;0.60;0.60;;;;;;;23.39;87.43;94695.66;5072474;28;20949;-69
2023/08/29 03:24:23;;;;;;;1.00;0.40;;;;;;;23.19;89.24;94691.47;5071960;28;20886;-68
2023/08/29 03:26:51;;;;;;;1.47;1.37;;;;;;;23.21;89.67;94684.53;5072912;28;20875;-69
2023/08/29 03:29:21;;;;;;;1.50;0.50;;;;;;;23.20;90.09;94682.19;5072222;28;20465;-69
2023/08/29 03:31:49;;;;;;;0.53;0.50;;;;;;;22.85;89.76;94639.19;5072622;28;20438;-69
2023/08/29 03:34:18;;;;;;;0.73;0.63;;;;;;;23.12;89.84;94689.41;5072210;28;20441;-69
2023/08/29 03:36:46;;;;;;;0.60;0.37;;;;;;;23.08;91.20;94687.81;5072369;28;20437;-69
2023/08/29 03:39:15;;;;;;;0.70;0.60;;;;;;;23.03;91.16;94688.13;5072113;28;20441;-69
2023/08/29 03:41:43;;;;;;;0.60;0.60;;;;;;;22.97;92.12;94684.94;5071944;28;20445;-70
2023/08/29 03:44:12;;;;;;;1.00;1.00;;;;;;;23.01;92.00;94682.28;5058852;28;20472;-70
2023/08/29 03:46:42;;;;;;;0.40;0.30;;;;;;;22.96;92.08;94686.09;5071854;28;20472;-70
2023/08/29 03:49:10;;;;;;;0.90;0.40;;;;;;;22.98;91.52;94680.31;5071561;28;20493;-70
2023/08/29 03:51:38;;;;;;;0.80;0.70;;;;;;;22.85;92.33;94687.03;5071437;28;20437;-69
2023/08/29 03:54:07;;;;;;;0.50;0.40;;;;;;;22.40;91.80;94617.59;5071161;28;20445;-69
2023/08/29 03:56:35;;;;;;;1.57;0.93;;;;;;;22.18;91.15;94592.16;5071332;28;20804;-69
2023/08/29 03:59:07;;;;;;;0.57;0.50;;;;;;;22.86;90.29;94677.81;5071442;28;20850;-68
2023/08/29 04:01:35;;;;;;;0.50;0.43;;;;;;;22.79;91.51;94675.00;5070890;28;20442;-68
2023/08/29 04:04:05;;;;;;;0.57;0.40;;;;;;;22.56;91.51;94643.34;5071418;28;20980;-69
2023/08/29 04:06:34;;;;;;;4.10;0.40;;;;;;;22.67;94.41;94684.06;5071852;28;20449;-71
2023/08/29 04:09:03;;;;;;;1.63;1.53;;;;;;;22.54;96.13;94691.53;5072729;28;20548;-69
2023/08/29 04:11:32;;;;;;;1.47;1.33;;;;;;;22.92;96.01;94687.94;5071392;28;20444;-70
2023/08/29 04:14:00;;;;;;;0.80;0.80;;;;;;;22.80;93.52;94693.53;5071591;28;20449;-70
2023/08/29 04:16:28;;;;;;;0.50;0.50;;;;;;;22.31;97.50;94687.25;5071121;28;20519;-69
2023/08/29 04:18:57;;;;;;;0.80;0.60;;;;;;;21.96;100.00;94677.34;5071786;28;20434;-70
2023/08/29 04:21:26;;;;;;;0.60;0.50;;;;;;;22.04;100.00;94684.44;5070662;28;20442;-70
2023/08/29 04:23:55;;;;;;;1.90;0.50;;;;;;;21.95;100.00;94678.50;5071176;28;20430;-70
2023/08/29 04:26:23;;;;;;;1.00;1.00;;;;;;;21.58;100.00;94695.44;5070585;28;20452;-70
2023/08/29 04:28:51;;;;;;;0.60;0.60;;;;;;;21.59;100.00;94696.97;5071122;28;20530;-70
2023/08/29 04:31:20;;;;;;;1.37;0.80;;;;;;;21.94;100.00;94692.31;5070828;28;21087;-71
2023/08/29 04:33:49;;;;;;;1.53;1.43;;;;;;;22.02;100.00;94678.63;5071725;28;20448;-71
2023/08/29 04:36:18;;;;;;;0.70;0.60;;;;;;;22.00;100.00;94686.31;5071628;28;20441;-70
2023/08/29 04:38:48;;;;;;;0.80;0.80;;;;;;;22.00;100.00;94693.63;5071639;28;20878;-70
2023/08/29 04:41:16;;;;;;;0.50;0.50;;;;;;;22.26;100.00;94701.84;5071197;28;20487;-70
2023/08/29 04:43:44;;;;;;;0.60;0.57;;;;;;;21.75;100.00;94644.53;5070209;28;20433;-69
2023/08/29 04:46:13;;;;;;;0.60;0.57;;;;;;;21.88;100.00;94710.72;5045622;28;20437;-70
2023/08/29 04:48:42;;;;;;;0.70;0.70;;;;;;;21.93;100.00;94704.28;5070555;28;20443;-69
2023/08/29 04:51:10;;;;;;;2.97;0.97;;;;;;;21.47;100.00;94700.59;5071007;28;20445;-60
2023/08/29 04:53:39;;;;;;;0.90;0.67;;;;;;;21.29;100.00;94696.72;5071072;28;20443;-59
2023/08/29 04:56:09;;;;;;;0.60;0.50;;;;;;;21.76;100.00;94704.66;5070946;28;21010;-58
2023/08/29 04:58:37;;;;;;;1.00;0.70;;;;;;;22.30;100.00;94710.78;5070701;28;20444;-58
2023/08/29 05:01:06;;;;;;;1.13;0.50;;;;;;;22.35;100.00;94704.28;5071152;28;20445;-58
2023/08/29 05:03:34;;;;;;;0.60;0.50;;;;;;;22.18;100.00;94702.84;5070688;28;20446;-59
2023/08/29 05:06:02;;;;;;;0.60;0.40;;;;;;;22.55;100.00;94706.59;5070848;28;20438;-58
2023/08/29 05:08:34;;;;;;;0.67;0.40;;;;;;;22.14;100.00;94702.75;5070839;28;20445;-58
2023/08/29 05:11:03;;;;;;;0.50;0.43;;;;;;;22.10;100.00;94666.06;5074579;28;21021;-58
2023/08/29 05:13:33;;;;;;;0.47;0.33;;;;;;;22.27;100.00;94722.28;5074935;28;20441;-58
2023/08/29 05:16:03;;;;;;;0.80;0.80;;;;;;;22.56;100.00;94720.91;5075188;28;20518;-58
2023/08/29 05:18:31;;;;;;;9.30;0.63;;;;;;;22.59;98.67;94722.88;5048936;28;20449;-58
2023/08/29 05:21:02;;;;;;;0.50;0.37;;;;;;;22.94;96.49;94717.31;5074479;28;20441;-57
2023/08/29 05:23:31;;;;;;;2.57;0.77;;;;;;;23.25;94.54;94714.34;5074223;28;20433;-59
2023/08/29 05:25:59;;;;;;;0.50;0.40;;;;;;;23.35;92.04;94708.31;5074392;28;20526;-54
2023/08/29 05:28:27;;;;;;;0.47;0.40;;;;;;;23.42;92.15;94704.94;5074961;28;20433;-50
2023/08/29 05:30:57;;;;;;;0.50;0.50;;;;;;;23.61;90.97;94704.81;5074366;28;20469;-51
2023/08/29 05:33:25;;;;;;;1.57;0.70;;;;;;;23.79;88.85;94703.91;5074287;28;20449;-51
2023/08/29 05:35:54;;;;;;;1.67;1.03;;;;;;;23.22;90.63;94709.66;5074686;28;20433;-50
2023/08/29 05:38:25;;;;;;;1.70;0.90;;;;;;;22.60;97.44;94700.91;5074608;28;20828;-50
2023/08/29 05:40:55;;;;;;;0.53;0.53;;;;;;;22.90;96.72;94698.34;5074286;28;20512;-50
2023/08/29 05:43:24;;;;;;;4.43;0.67;;;;;;;23.19;96.21;94702.28;5073668;28;20503;-53
2023/08/29 05:45:57;;;;;;;0.90;0.90;;;;;;;23.54;90.75;94713.63;5073682;28;20444;-54
2023/08/29 05:48:25;;;;;;;2.20;0.47;;;;;;;23.59;90.18;94697.09;5061262;28;20446;-54
2023/08/29 05:50:53;;;;;;;0.63;0.60;;;;;;;24.27;85.65;94698.69;5073510;28;20526;-54
2023/08/29 05:53:22;;;;;;;0.93;0.50;;;;;;;24.24;85.41;94683.97;5074062;28;20445;-54
2023/08/29 05:55:50;;;;;;;0.50;0.40;;;;;;;24.60;82.24;94663.44;5074221;28;20442;-54
2023/08/29 05:58:21;;;;;;;0.60;0.43;;;;;;;24.92;80.33;94686.19;5073830;28;20476;-54
2023/08/29 06:00:50;;;;;;;0.50;0.30;;;;;;;24.87;79.03;94650.53;5073880;28;20437;-54
2023/08/29 06:03:21;;;;;;;0.60;0.47;;;;;;;25.40;76.72;94683.47;5072895;28;20492;-54
2023/08/29 06:05:50;;;;;;;1.27;0.60;;;;;;;25.64;75.27;94677.41;5074147;28;20498;-54
2023/08/29 06:08:19;;;;;;;0.50;0.50;;;;;;;25.69;75.05;94675.13;5073952;28;20491;-53
2023/08/29 06:10:47;;;;;;;0.83;0.83;;;;;;;26.28;71.76;94679.28;5073862;28;20977;-53
2023/08/29 06:13:16;;;;;;;0.60;0.50;;;;;;;26.33;69.88;94651.72;5073297;28;20453;-53
2023/08/29 06:15:45;;;;;;;1.13;1.03;;;;;;;26.01;70.49;94671.78;5073774;28;20441;-53
2023/08/29 06:18:13;;;;;;;0.87;0.80;;;;;;;26.28;69.89;94664.91;5074058;28;20494;-53
2023/08/29 06:20:43;;;;;;;0.77;0.70;;;;;;;26.55;69.07;94657.97;5073550;28;20790;-53
2023/08/29 06:23:13;;;;;;;0.90;0.73;;;;;;;27.11;67.63;94665.38;5060676;28;20486;-53
2023/08/29 06:25:41;;;;;;;2.63;0.40;;;;;;;27.74;65.21;94664.53;5073669;28;20430;-54
2023/08/29 06:28:10;;;;;;;0.50;0.50;;;;;;;28.13;63.62;94658.97;5072928;28;20956;-53
2023/08/29 06:30:38;;;;;;;1.17;0.40;;;;;;;28.29;62.08;94649.13;5073542;28;20473;-53
2023/08/29 06:33:07;;;;;;;0.50;0.50;;;;;;;28.67;61.52;94638.41;5072976;28;20476;-53
2023/08/29 06:35:37;;;;;;;0.73;0.63;;;;;;;28.22;61.36;94637.50;5073080;28;20447;-53
2023/08/29 06:38:08;;;;;;;1.33;1.23;;;;;;;28.12;61.58;94643.78;5072657;28;20510;-53
2023/08/29 06:40:37;;;;;;;0.60;0.60;;;;;;;28.58;61.85;94643.50;5072794;28;20929;-53
2023/08/29 06:43:05;;;;;;;0.70;0.70;;;;;;;29.07;59.77;94650.56;5073475;28;20518;-54
2023/08/29 06:45:34;;;;;;;1.90;0.57;;;;;;;29.38;58.17;94653.03;5072666;28;21014;-54
2023/08/29 06:48:02;;;;;;;0.50;0.47;;;;;;;28.82;58.34;94646.06;5073137;28;20890;-54
2023/08/29 06:50:30;;;;;;;0.80;0.80;;;;;;;28.63;62.35;94641.16;5072330;28;21116;-54
2023/08/29 06:52:59;;;;;;;0.83;0.83;;;;;;;27.93;61.73;94650.44;5073031;28;20961;-54
2023/08/29 06:55:28;;;;;;;2.87;0.93;;;;;;;28.01;62.21;94654.72;5069020;28;20438;-55
2023/08/29 06:57:56;;;;;;;1.33;1.23;;;;;;;28.00;61.78;94658.59;5063750;28;20494;-55
2023/08/29 07:00:24;;;;;;;0.87;0.87;;;;;;;28.23;61.51;94660.84;5071608;28;20473;-53
2023/08/29 07:02:53;;;;;;;0.87;0.80;;;;;;;27.48;62.94;94657.59;5073176;28;20502;-53
2023/08/29 07:05:21;;;;;;;0.87;0.87;;;;;;;27.20;64.46;94657.59;5073066;28;20531;-53
2023/08/29 07:07:50;;;;;;;5.17;1.33;;;;;;;26.84;65.82;94610.59;5072825;28;20434;-53
2023/08/29 07:10:18;;;;;;;0.97;0.77;;;;;;;27.41;65.62;94651.38;5072483;28;20469;-54
2023/08/29 07:12:50;;;;;;;1.20;1.10;;;;;;;27.30;65.17;94648.66;5072536;28;20452;-54
2023/08/29 07:15:18;;;;;;;1.20;1.20;;;;;;;27.26;65.99;94638.94;5071605;28;20453;-54
2023/08/29 07:17:47;;;;;;;1.27;1.00;;;;;;;26.98;65.21;94586.13;5072114;28;20449;-53
2023/08/29 07:20:15;;;;;;;0.90;0.87;;;;;;;27.23;63.18;94588.81;5072643;28;20866;-54
2023/08/29 07:22:44;;;;;;;2.53;0.77;;;;;;;28.41;62.71;94623.38;5071898;28;20433;-55
2023/08/29 07:25:14;;;;;;;2.07;1.17;;;;;;;28.99;60.66;94565.28;5064601;28;20511;-56
2023/08/29 07:27:43;;;;;;;0.77;0.70;;;;;;;28.39;60.35;94597.69;5067386;28;20853;-56
2023/08/29 07:30:15;;;;;;;0.63;0.63;;;;;;;28.46;61.32;94630.34;5072147;28;20816;-56
2023/08/29 07:32:44;;;;;;;0.93;0.93;;;;;;;28.75;59.26;94618.88;5071825;28;20437;-55
2023/08/29 07:35:13;;;;;;;15.57;0.70;;;;;;;28.97;59.02;94621.44;5072631;28;20521;-56
2023/08/29 07:37:42;;;;;;;0.73;0.50;;;;;;;29.35;58.92;94591.03;5071723;28;20529;-56
2023/08/29 07:40:11;;;;;;;0.63;0.53;;;;;;;29.97;57.48;94614.56;5072233;28;20444;-56
2023/08/29 07:42:40;;;;;;;0.60;0.40;;;;;;;30.73;55.57;94608.41;5071271;28;20870;-56
2023/08/29 07:45:09;;;;;;;0.40;0.40;;;;;;;30.81;55.79;94607.13;5071610;28;20448;-55
2023/08/29 07:47:39;;;;;;;0.50;0.50;;;;;;;30.93;54.56;94606.56;5072098;28;20437;-56
2023/08/29 07:50:08;;;;;;;0.50;0.50;;;;;;;30.73;52.17;94564.66;5071306;28;20469;-56
2023/08/29 07:52:37;;;;;;;0.70;0.50;;;;;;;31.76;52.07;94601.94;5071494;28;20542;-56
2023/08/29 07:55:10;;;;;;;0.70;0.40;;;;;;;32.43;49.39;94603.28;5071557;28;20980;-56
2023/08/29 07:57:38;;;;;;;0.40;0.40;;;;;;;32.89;47.37;94594.75;5071568;28;20519;-57
2023/08/29 08:00:10;;;;;;;0.50;0.50;;;;;;;32.70;47.91;94590.13;5071860;28;20444;-55
2023/08/29 08:02:40;;;;;;;0.80;0.80;;;;;;;32.32;47.43;94573.34;5071941;28;20497;-56
2023/08/29 08:05:11;;;;;;;0.40;0.30;;;;;;;33.07;47.33;94592.38;5071487;28;20448;-56
2023/08/29 08:07:40;;;;;;;0.80;0.60;;;;;;;33.44;46.47;94557.28;5072262;28;20443;-56
2023/08/29 08:10:09;;;;;;;0.40;0.40;;;;;;;34.24;45.91;94576.22;5071619;28;20957;-56
2023/08/29 08:12:39;;;;;;;2.10;0.77;;;;;;;33.01;46.17;94541.13;5071969;28;20522;-56
2023/08/29 08:15:08;;;;;;;0.63;0.60;;;;;;;33.34;47.78;94570.13;5071664;28;20789;-55
2023/08/29 08:17:39;;;;;;;0.67;0.50;;;;;;;33.02;47.33;94539.91;5071837;28;20467;-56
2023/08/29 08:20:08;;;;;;;0.70;0.50;;;;;;;33.38;47.26;94570.00;5071236;28;20822;-55
2023/08/29 08:22:38;;;;;;;0.40;0.40;;;;;;;33.70;46.54;94572.69;5071154;28;20460;-55
2023/08/29 08:25:07;;;;;;;0.83;0.50;;;;;;;33.55;46.27;94569.56;5071913;28;20452;-56
2023/08/29 08:27:36;;;;;;;1.83;0.50;;;;;;;33.39;44.20;94566.06;5070425;28;20509;-56
2023/08/29 08:30:07;;;;;;;1.13;0.90;;;;;;;33.79;45.24;94556.31;5071553;28;20444;-55
2023/08/29 08:32:36;;;;;;;0.57;0.57;;;;;;;33.63;44.36;94562.66;5070953;28;20480;-56
2023/08/29 08:35:10;;;;;;;3.03;0.50;;;;;;;33.55;43.74;94533.81;5071987;28;21006;-56
2023/08/29 08:37:38;;;;;;;0.57;0.57;;;;;;;33.13;42.58;94554.97;5071331;28;20437;-56
2023/08/29 08:40:09;;;;;;;0.70;0.70;;;;;;;32.98;42.62;94542.00;5071340;28;20440;-56
2023/08/29 08:42:40;;;;;;;0.47;0.40;;;;;;;32.28;44.37;94537.03;5070746;28;20527;-57
2023/08/29 08:45:10;;;;;;;2.00;0.77;;;;;;;31.85;43.42;94539.13;5074435;28;20440;-56
2023/08/29 08:47:39;;;;;;;1.43;1.33;;;;;;;31.97;43.64;94538.47;5075227;28;20515;-56
2023/08/29 08:50:10;;;;;;;1.53;0.67;;;;;;;31.52;44.61;94534.72;5075476;28;20472;-57
2023/08/29 08:52:40;;;;;;;0.50;0.40;;;;;;;32.37;43.86;94533.66;5050194;28;20487;-55
2023/08/29 08:55:09;;;;;;;0.80;0.80;;;;;;;32.96;43.73;94522.44;5074821;28;20448;-55
2023/08/29 08:57:38;;;;;;;0.50;0.40;;;;;;;32.85;44.06;94519.97;5075119;28;20975;-56
2023/08/29 09:00:08;;;;;;;0.67;0.60;;;;;;;32.80;43.03;94525.97;5074674;28;20436;-57
2023/08/29 09:02:38;;;;;;;1.90;1.10;;;;;;;32.11;43.75;94524.47;5074479;28;20459;-56
2023/08/29 09:05:07;;;;;;;0.50;0.47;;;;;;;32.60;43.11;94526.09;5074389;28;20464;-57
2023/08/29 09:07:40;;;;;;;0.47;0.40;;;;;;;32.86;43.04;94501.53;5074855;28;20444;-56
2023/08/29 09:10:11;;;;;;;0.40;0.33;;;;;;;33.01;42.56;94510.94;5074452;28;20470;-56
2023/08/29 09:12:47;;;;;;;0.60;0.60;;;;;;;33.54;41.68;94524.03;5075402;28;20479;-56
2023/08/29 09:15:17;;;;;;;0.57;0.50;;;;;;;32.91;42.25;94515.50;5075202;28;20432;-56
2023/08/29 09:17:49;;;;;;;0.77;0.73;;;;;;;33.06;42.11;94513.19;5074644;28;20845;-56
2023/08/29 09:20:19;;;;;;;0.50;0.47;;;;;;;33.28;41.48;94513.38;5072714;28;20444;-56
2023/08/29 09:22:49;;;;;;;1.27;1.17;;;;;;;32.90;40.55;94522.19;5069425;28;21022;-55
2023/08/29 09:25:18;;;;;;;0.40;0.30;;;;;;;32.02;42.29;94494.13;5074251;28;20523;-59
2023/08/29 09:27:48;;;;;;;0.90;0.90;;;;;;;31.90;43.47;94511.97;5074550;28;20444;-61
2023/08/29 09:30:18;;;;;;;0.40;0.40;;;;;;;31.38;43.59;94468.03;5074650;28;20436;-60
2023/08/29 09:32:48;;;;;;;2.23;0.90;;;;;;;31.84;42.89;94493.72;5073185;28;21047;-60
2023/08/29 09:35:19;;;;;;;0.70;0.70;;;;;;;32.06;44.00;94499.50;5074382;28;20436;-55
2023/08/29 09:37:52;;;;;;;0.40;0.40;;;;;;;31.62;43.72;94503.59;5073781;28;20498;-55
2023/08/29 09:40:22;;;;;;;3.80;0.97;;;;;;;31.40;44.13;94498.50;5074000;28;20504;-56
2023/08/29 09:43:06;;;;;;;0.67;0.60;;;;;;;31.89;44.12;94498.69;5074006;28;20444;-55
2023/08/29 09:45:37;;;;;;;1.20;0.77;;;;;;;32.05;44.14;94482.31;5073794;28;20493;-55
2023/08/29 09:48:08;;;;;;;0.77;0.60;;;;;;;32.85;42.88;94486.25;5073941;28;20952;-56
2023/08/29 09:50:38;;;;;;;0.53;0.53;;;;;;;32.75;42.23;94495.53;5073356;28;20533;-55
2023/08/29 09:53:09;;;;;;;0.90;0.90;;;;;;;32.85;43.22;94483.50;5074155;28;20543;-55
2023/08/29 09:55:40;;;;;;;1.70;0.90;;;;;;;33.69;41.94;94469.44;5073853;28;20444;-55
2023/08/29 09:58:11;;;;;;;1.07;1.07;;;;;;;33.20;42.07;94477.09;5074194;28;20778;-56
2023/08/29 10:00:41;;;;;;;1.10;1.00;;;;;;;33.98;40.87;94466.63;5073948;28;20440;-54
2023/08/29 10:03:10;;;;;;;2.47;0.53;;;;;;;33.82;39.76;94465.53;5074240;28;20441;-54
2023/08/29 10:05:41;;;;;;;1.23;0.60;;;;;;;34.17;39.58;94455.41;5074347;28;20435;-54
2023/08/29 10:08:19;;;;;;;0.60;0.60;;;;;;;33.95;38.85;94446.28;5073824;28;20521;-55
2023/08/29 10:10:48;;;;;;;0.67;0.67;;;;;;;34.24;37.63;94454.41;5074073;28;20448;-54
2023/08/29 10:13:17;;;;;;;0.73;0.63;;;;;;;33.84;38.19;94454.06;5073339;28;21059;-55
2023/08/29 10:15:46;;;;;;;0.80;0.80;;;;;;;33.93;38.45;94456.16;5073515;28;20436;-55
2023/08/29 10:18:15;;;;;;;0.50;0.50;;;;;;;33.65;38.12;94455.06;5073402;28;20971;-55
2023/08/29 10:20:44;;;;;;;0.53;0.50;;;;;;;33.84;37.57;94452.09;5073849;28;20468;-54
2023/08/29 10:23:14;;;;;;;1.40;0.60;;;;;;;33.54;38.53;94422.34;5073536;28;20437;-55
2023/08/29 10:25:43;;;;;;;0.80;0.80;;;;;;;32.88;37.84;94442.25;5073452;28;20439;-55
2023/08/29 10:28:15;;;;;;;0.60;0.50;;;;;;;32.75;38.47;94440.66;5073332;28;20437;-55
2023/08/29 10:30:46;;;;;;;5.07;0.90;;;;;;;32.51;38.80;94407.94;5073659;28;20876;-55
2023/08/29 10:33:15;;;;;;;0.77;0.60;;;;;;;32.52;38.33;94441.63;5073469;28;20534;-55
2023/08/29 10:35:43;;;;;;;0.90;0.70;;;;;;;32.80;38.81;94442.84;5073253;28;20911;-55
2023/08/29 10:38:15;;;;;;;0.63;0.50;;;;;;;32.79;37.94;94452.31;5073350;28;20540;-57
2023/08/29 10:40:44;;;;;;;0.67;0.67;;;;;;;32.59;37.99;94439.47;5073092;28;20441;-55
2023/08/29 10:43:21;;;;;;;2.70;0.57;;;;;;;32.17;38.01;94402.13;5073490;28;20521;-55
2023/08/29 10:45:50;;;;;;;1.37;1.27;;;;;;;32.69;37.50;94409.47;5072448;28;20468;-55
2023/08/29 10:48:20;;;;;;;2.10;0.40;;;;;;;33.01;36.52;94448.56;5073189;28;20433;-55
2023/08/29 10:51:09;;;;;;;0.40;0.30;;;;;;;33.39;36.95;94443.22;5072601;28;20521;-55
2023/08/29 10:53:40;;;;;;;0.40;0.30;;;;;;;34.38;35.56;94451.22;5072500;28;20483;-57
2023/08/29 10:56:09;;;;;;;0.40;0.40;;;;;;;34.86;34.81;94434.28;5072764;28;20441;-55
2023/08/29 10:58:39;;;;;;;0.60;0.60;;;;;;;35.15;33.67;94438.78;5072175;28;20441;-55
2023/08/29 11:01:09;;;;;;;1.13;1.13;;;;;;;35.60;32.71;94436.34;5072155;28;20453;-55
2023/08/29 11:03:43;;;;;;;0.80;0.40;;;;;;;36.26;31.36;94386.06;5072579;28;20194;-56
2023/08/29 11:06:11;;;;;;;0.50;0.40;;;;;;;36.04;30.42;94437.81;5072281;28;20527;-55
2023/08/29 11:08:42;;;;;;;1.40;0.70;;;;;;;35.52;31.33;94430.34;5071844;28;20448;-55
2023/08/29 11:11:20;;;;;;;0.67;0.67;;;;;;;34.42;32.62;94438.88;5072897;28;20272;-56
2023/08/29 11:14:00;;;;;;;4.83;0.73;;;;;;;34.04;32.08;94438.13;5046288;28;20229;-56
2023/08/29 11:16:29;;;;;;;0.50;0.40;;;;;;;33.65;33.16;94435.81;5071606;28;20201;-54
2023/08/29 11:19:11;;;;;;;2.90;0.47;;;;;;;33.49;33.40;94438.63;5072615;28;20251;-56
2023/08/29 11:21:39;;;;;;;0.60;0.40;;;;;;;32.97;33.64;94376.50;5071769;28;20201;-56
2023/08/29 11:24:10;;;;;;;0.50;0.40;;;;;;;33.21;32.85;94427.25;5071875;28;20279;-56
2023/08/29 11:26:47;;;;;;;0.40;0.30;;;;;;;33.38;33.82;94416.16;5071627;28;20436;-61
2023/08/29 11:29:16;;;;;;;0.50;0.40;;;;;;;33.25;33.36;94418.88;5071856;28;20476;-56
2023/08/29 11:31:47;;;;;;;0.57;0.40;;;;;;;33.02;33.19;94427.34;5072219;28;20455;-57
2023/08/29 11:34:17;;;;;;;1.90;0.40;;;;;;;32.84;33.88;94419.59;5072070;28;20472;-57
2023/08/29 11:36:48;;;;;;;0.40;0.30;;;;;;;32.74;33.06;94422.66;5072358;28;20478;-57
2023/08/29 11:39:21;;;;;;;0.50;0.43;;;;;;;33.01;33.09;94420.34;5071955;28;20436;-58
2023/08/29 11:41:51;;;;;;;0.40;0.30;;;;;;;33.45;32.79;94422.22;5071861;28;20432;-58